Time;durP1;ratioP1;P1;durP2;ratioP2;P2;SDS_P1;SDS_P2;PMS_P1;PMS_P2;Temp;Humidity;BMP_temperature;BMP_pressure;BME280_temperature;BME280_humidity;BME280_pressure;Samples;Min_cycle;Max_cycle;Signal;HPM_P1;HPM_P2
2022/03/27 00:00:26;;;;;;;12.38;7.38;;;6.10;99.90;;;;;;5030407;28;20086;-76
2022/03/27 00:02:52;;;;;;;10.63;7.85;;;6.20;99.90;;;;;;5029482;28;20041;-76
2022/03/27 00:05:18;;;;;;;11.30;7.80;;;6.20;99.90;;;;;;5029836;28;20043;-76
2022/03/27 00:07:43;;;;;;;13.95;8.27;;;6.20;99.90;;;;;;5030400;28;20386;-76
2022/03/27 00:10:09;;;;;;;12.98;8.02;;;6.20;99.90;;;;;;5029279;28;20542;-76
2022/03/27 00:12:36;;;;;;;11.75;7.40;;;6.20;99.90;;;;;;5030364;28;20519;-76
2022/03/27 00:15:03;;;;;;;13.43;7.85;;;6.20;99.90;;;;;;5030235;28;20057;-76
2022/03/27 00:17:32;;;;;;;10.82;7.03;;;6.20;99.90;;;;;;5030761;28;20046;-76
2022/03/27 00:19:59;;;;;;;11.00;7.60;;;6.20;99.90;;;;;;5025657;28;20040;-76
2022/03/27 00:22:26;;;;;;;12.60;7.82;;;6.20;99.90;;;;;;5030055;28;20065;-76
2022/03/27 00:24:51;;;;;;;12.43;7.38;;;6.30;99.90;;;;;;5029908;28;20045;-76
2022/03/27 00:27:17;;;;;;;13.82;8.35;;;6.30;99.90;;;;;;5028775;28;20033;-77
2022/03/27 00:29:43;;;;;;;10.85;7.07;;;6.30;99.90;;;;;;5029537;28;20042;-76
2022/03/27 00:32:08;;;;;;;12.93;8.70;;;6.30;99.90;;;;;;5028978;28;20123;-76
2022/03/27 00:34:34;;;;;;;16.20;9.20;;;6.30;99.90;;;;;;5029655;28;20044;-76
2022/03/27 00:37:00;;;;;;;16.90;9.43;;;6.40;99.90;;;;;;5031231;28;20044;-76
2022/03/27 00:39:26;;;;;;;10.90;8.27;;;6.40;99.90;;;;;;5030183;28;20041;-76
2022/03/27 00:41:51;;;;;;;16.10;8.68;;;6.40;99.90;;;;;;5029835;28;20041;-77
2022/03/27 00:44:17;;;;;;;13.65;9.65;;;6.40;99.90;;;;;;5031634;28;20037;-76
2022/03/27 00:46:43;;;;;;;14.60;8.13;;;6.40;99.90;;;;;;5030414;28;20036;-76
2022/03/27 00:49:09;;;;;;;14.68;9.10;;;6.40;99.90;;;;;;5026540;28;20053;-76
2022/03/27 00:51:35;;;;;;;12.68;8.15;;;6.50;99.90;;;;;;5032724;28;20033;-76
2022/03/27 00:54:02;;;;;;;15.95;8.98;;;6.50;99.90;;;;;;5028336;28;20511;-76
2022/03/27 00:56:27;;;;;;;14.25;8.15;;;6.50;99.90;;;;;;5013249;28;20033;-76
2022/03/27 00:58:53;;;;;;;14.85;8.32;;;6.50;99.90;;;;;;5029018;28;20454;-75
2022/03/27 01:01:31;;;;;;;14.27;8.18;;;6.50;99.90;;;;;;5026716;28;20041;-76
2022/03/27 01:03:57;;;;;;;13.13;8.32;;;6.40;99.90;;;;;;5028818;28;20029;-76
2022/03/27 01:06:30;;;;;;;16.33;8.48;;;6.40;99.90;;;;;;5029697;28;20045;-76
2022/03/27 01:11:41;;;;;;;14.75;9.82;;;6.40;99.90;;;;;;5028304;28;20055;-76
2022/03/27 01:14:09;;;;;;;17.75;9.40;;;6.30;99.90;;;;;;5010854;28;20471;-76
2022/03/27 01:17:01;;;;;;;18.02;10.82;;;6.30;99.90;;;;;;5012573;28;20060;-76
2022/03/27 01:19:28;;;;;;;17.13;10.73;;;6.30;99.90;;;;;;5028532;28;20065;-76
2022/03/27 01:21:54;;;;;;;17.20;10.15;;;6.20;99.90;;;;;;5028061;28;20107;-76
2022/03/27 01:24:20;;;;;;;16.13;10.18;;;6.10;99.90;;;;;;5028918;28;20436;-75
2022/03/27 01:26:46;;;;;;;19.45;10.55;;;6.00;99.90;;;;;;5031097;28;20041;-76
2022/03/27 01:29:12;;;;;;;18.23;10.43;;;6.00;99.90;;;;;;5028281;28;20510;-76
2022/03/27 01:31:38;;;;;;;15.18;9.68;;;5.90;99.90;;;;;;5027083;28;20032;-77
2022/03/27 01:34:05;;;;;;;22.10;11.48;;;5.90;99.90;;;;;;5031152;28;20042;-76
2022/03/27 01:36:34;;;;;;;21.30;11.77;;;5.90;99.90;;;;;;5028507;28;20041;-76
2022/03/27 01:39:05;;;;;;;18.88;10.82;;;5.80;99.90;;;;;;5030020;28;20041;-76
2022/03/27 01:41:31;;;;;;;19.38;11.93;;;5.80;99.90;;;;;;5028698;28;20111;-76
2022/03/27 01:43:59;;;;;;;17.35;10.63;;;5.70;99.90;;;;;;5028875;28;20042;-76
2022/03/27 01:46:25;;;;;;;17.60;10.02;;;5.60;99.90;;;;;;5027278;28;20115;-76
2022/03/27 01:48:51;;;;;;;17.38;10.38;;;5.60;99.90;;;;;;5029645;28;20138;-76
2022/03/27 01:51:17;;;;;;;23.75;11.43;;;5.50;99.90;;;;;;5028287;28;20120;-76
2022/03/27 01:53:42;;;;;;;20.65;10.77;;;5.50;99.90;;;;;;5029884;28;20483;-76
2022/03/27 01:56:09;;;;;;;20.83;11.30;;;5.40;99.90;;;;;;5028269;28;20061;-76
2022/03/27 01:58:39;;;;;;;20.98;11.13;;;5.40;99.90;;;;;;5030697;28;20049;-76
2022/03/27 02:01:06;;;;;;;21.17;11.02;;;5.30;99.90;;;;;;5027456;28;20099;-76
2022/03/27 02:03:32;;;;;;;20.48;11.85;;;5.20;99.90;;;;;;5012303;28;20417;-76
2022/03/27 02:05:58;;;;;;;20.52;10.55;;;5.20;99.90;;;;;;5031630;28;20159;-76
2022/03/27 02:08:23;;;;;;;15.25;10.48;;;5.20;99.90;;;;;;5031058;28;20124;-76
2022/03/27 02:10:50;;;;;;;18.58;10.65;;;5.10;99.90;;;;;;5032821;28;20502;-76
2022/03/27 02:13:21;;;;;;;17.85;11.20;;;5.10;99.90;;;;;;5033327;28;20182;-76
2022/03/27 02:15:50;;;;;;;16.58;11.00;;;5.00;99.90;;;;;;5032039;28;20395;-76
2022/03/27 02:18:17;;;;;;;19.55;11.25;;;5.20;99.90;;;;;;5032392;28;20201;-76
2022/03/27 02:20:44;;;;;;;20.80;12.00;;;5.10;99.90;;;;;;5031485;28;20049;-76
2022/03/27 02:23:14;;;;;;;19.52;11.73;;;4.90;99.90;;;;;;5015792;28;20099;-76
2022/03/27 02:25:40;;;;;;;24.50;13.32;;;4.80;99.90;;;;;;5013942;28;20037;-76
2022/03/27 02:28:07;;;;;;;24.85;11.73;;;4.70;99.90;;;;;;5033023;28;20037;-76
2022/03/27 02:30:34;;;;;;;24.10;12.23;;;4.60;99.90;;;;;;5030759;28;20558;-76
2022/03/27 02:33:00;;;;;;;22.35;11.98;;;4.60;99.90;;;;;;5033036;28;20041;-76
2022/03/27 02:35:25;;;;;;;23.25;12.55;;;4.50;99.90;;;;;;5033305;28;20471;-75
2022/03/27 02:37:51;;;;;;;24.38;12.43;;;4.50;99.90;;;;;;5042892;28;20077;-76
2022/03/27 02:40:17;;;;;;;24.92;13.00;;;4.40;99.90;;;;;;5030903;28;20034;-76
2022/03/27 02:42:43;;;;;;;19.38;11.57;;;4.40;99.90;;;;;;5031561;28;20048;-76
2022/03/27 02:45:09;;;;;;;27.58;12.85;;;4.40;99.90;;;;;;5032994;28;20892;-76
2022/03/27 02:47:35;;;;;;;22.45;11.27;;;4.30;99.90;;;;;;5031006;28;20052;-75
2022/03/27 02:50:04;;;;;;;20.13;11.40;;;4.30;99.90;;;;;;5029447;28;20060;-76
2022/03/27 02:52:30;;;;;;;20.00;11.60;;;4.20;99.90;;;;;;5024258;28;20045;-76
2022/03/27 02:54:57;;;;;;;25.23;11.35;;;4.20;99.90;;;;;;5032435;28;20033;-76
2022/03/27 02:57:23;;;;;;;23.70;12.13;;;4.20;99.90;;;;;;5032646;28;20044;-76
2022/03/27 02:59:52;;;;;;;24.23;12.77;;;4.20;99.90;;;;;;5030782;28;20140;-75
2022/03/27 03:02:19;;;;;;;23.98;11.15;;;4.20;99.90;;;;;;5030265;28;20383;-76
2022/03/27 03:04:45;;;;;;;23.67;12.20;;;4.20;99.90;;;;;;5035421;28;20033;-76
2022/03/27 03:07:11;;;;;;;23.95;12.88;;;4.20;99.90;;;;;;5037768;28;20052;-75
2022/03/27 03:09:37;;;;;;;26.27;11.23;;;4.20;99.90;;;;;;5032676;28;20151;-76
2022/03/27 03:12:04;;;;;;;27.17;12.60;;;4.10;99.90;;;;;;5030827;28;20519;-76
2022/03/27 03:14:29;;;;;;;30.10;12.50;;;4.10;99.90;;;;;;5030800;28;20124;-75
2022/03/27 03:16:56;;;;;;;25.60;12.18;;;4.10;99.90;;;;;;5030551;28;20140;-76
2022/03/27 03:19:22;;;;;;;26.42;11.75;;;4.10;99.90;;;;;;5030110;28;20033;-76
2022/03/27 03:21:48;;;;;;;25.48;12.07;;;4.10;99.90;;;;;;5030331;28;20037;-76
2022/03/27 03:24:14;;;;;;;23.77;11.52;;;4.10;99.90;;;;;;5032438;28;20029;-76
2022/03/27 03:26:40;;;;;;;24.42;11.60;;;4.10;99.90;;;;;;5029887;28;20522;-76
2022/03/27 03:29:06;;;;;;;23.35;11.77;;;4.10;99.90;;;;;;5032139;28;20037;-75
2022/03/27 03:31:33;;;;;;;24.95;11.48;;;4.10;99.90;;;;;;5030117;28;20041;-76
2022/03/27 03:33:59;;;;;;;23.67;11.77;;;4.40;99.90;;;;;;5032019;28;20090;-76
2022/03/27 03:36:24;;;;;;;22.00;10.95;;;4.00;99.90;;;;;;5031816;28;20044;-75
2022/03/27 03:38:51;;;;;;;19.67;10.30;;;4.00;99.90;;;;;;5030015;28;20057;-75
2022/03/27 03:41:17;;;;;;;22.30;11.13;;;4.00;99.90;;;;;;5030788;28;20037;-75
2022/03/27 03:43:43;;;;;;;22.30;10.40;;;4.00;99.90;;;;;;5031068;28;20087;-75
2022/03/27 03:46:09;;;;;;;21.65;10.88;;;4.00;99.90;;;;;;5042867;28;20040;-75
2022/03/27 03:48:35;;;;;;;21.17;10.70;;;3.90;99.90;;;;;;5010548;28;20607;-75
2022/03/27 03:51:00;;;;;;;21.88;11.10;;;4.00;99.90;;;;;;5036533;28;20124;-75
2022/03/27 03:53:27;;;;;;;19.60;10.43;;;3.90;99.90;;;;;;5029922;28;20041;-77
2022/03/27 03:55:53;;;;;;;20.52;10.52;;;3.90;99.90;;;;;;5040029;28;20041;-75
2022/03/27 03:58:19;;;;;;;22.35;11.30;;;3.90;99.90;;;;;;5030361;28;20513;-75
2022/03/27 04:00:46;;;;;;;21.77;10.57;;;4.00;99.90;;;;;;5035673;28;20104;-75
2022/03/27 04:03:14;;;;;;;18.58;9.63;;;3.90;99.90;;;;;;5027906;28;20536;-75
2022/03/27 04:05:40;;;;;;;18.52;10.25;;;3.90;99.90;;;;;;5030040;28;20041;-76
2022/03/27 04:08:05;;;;;;;26.77;10.18;;;4.00;99.90;;;;;;5029904;28;20049;-76
2022/03/27 04:10:31;;;;;;;25.00;10.88;;;4.10;99.90;;;;;;5029199;28;20034;-75
2022/03/27 04:12:57;;;;;;;25.10;10.63;;;4.20;99.90;;;;;;5031477;28;20030;-75
2022/03/27 04:15:23;;;;;;;24.13;11.00;;;4.30;99.90;;;;;;5027577;28;20048;-75
2022/03/27 04:17:50;;;;;;;22.08;11.38;;;4.30;99.90;;;;;;5030550;28;20128;-76
2022/03/27 04:20:17;;;;;;;28.48;10.63;;;4.40;99.90;;;;;;5031190;28;20051;-75
2022/03/27 04:22:44;;;;;;;23.90;10.52;;;4.50;99.90;;;;;;5029023;28;20034;-75
2022/03/27 04:25:11;;;;;;;24.27;10.52;;;4.50;99.90;;;;;;5031326;28;20045;-75
2022/03/27 04:27:37;;;;;;;25.00;10.40;;;4.50;99.90;;;;;;5027917;28;20072;-76
2022/03/27 04:30:08;;;;;;;25.98;11.25;;;4.50;99.90;;;;;;5030306;28;20052;-75
2022/03/27 04:32:34;;;;;;;27.17;9.77;;;4.50;99.90;;;;;;5029203;28;20596;-75
2022/03/27 04:35:00;;;;;;;23.70;10.23;;;4.50;99.90;;;;;;5030702;28;20036;-75
2022/03/27 04:37:26;;;;;;;23.98;10.00;;;4.50;99.90;;;;;;5028897;28;20049;-76
2022/03/27 04:39:52;;;;;;;24.23;9.82;;;4.50;99.90;;;;;;5012278;28;20045;-75
2022/03/27 04:42:18;;;;;;;28.23;10.40;;;4.50;99.90;;;;;;5027831;28;20049;-75
2022/03/27 04:44:44;;;;;;;30.40;10.27;;;4.50;99.90;;;;;;5028738;28;20041;-75
2022/03/27 04:47:09;;;;;;;23.17;9.55;;;4.60;99.90;;;;;;5031442;28;20479;-75
2022/03/27 04:49:35;;;;;;;27.60;9.82;;;4.50;99.90;;;;;;5028728;28;20037;-75
2022/03/27 04:52:01;;;;;;;25.67;8.77;;;4.60;99.90;;;;;;5029233;28;20033;-75
2022/03/27 04:54:26;;;;;;;23.48;10.07;;;4.60;99.90;;;;;;5028987;28;20025;-76
2022/03/27 04:56:54;;;;;;;27.42;9.23;;;4.60;99.90;;;;;;5031364;28;20491;-75
2022/03/27 04:59:19;;;;;;;24.13;9.60;;;4.50;99.90;;;;;;5030678;28;20044;-76
2022/03/27 05:01:45;;;;;;;24.50;9.35;;;4.50;99.90;;;;;;5028619;28;20037;-75
2022/03/27 05:04:11;;;;;;;24.92;9.90;;;4.50;99.90;;;;;;5028874;28;20057;-75
2022/03/27 05:06:37;;;;;;;22.40;9.75;;;4.50;99.90;;;;;;5030400;28;20099;-76
2022/03/27 05:09:02;;;;;;;23.92;9.40;;;4.50;99.90;;;;;;5028190;28;20049;-76
2022/03/27 05:11:28;;;;;;;20.92;8.95;;;4.50;99.90;;;;;;5031443;28;20041;-76
2022/03/27 05:13:57;;;;;;;24.98;9.70;;;4.50;99.90;;;;;;5045337;28;20044;-76
2022/03/27 05:16:23;;;;;;;26.65;9.18;;;4.50;99.90;;;;;;5053428;28;20052;-75
2022/03/27 05:18:49;;;;;;;23.25;9.10;;;4.50;99.90;;;;;;5054945;28;20041;-75
2022/03/27 05:21:18;;;;;;;28.40;10.95;;;4.50;99.90;;;;;;5041091;28;20314;-76
2022/03/27 05:23:44;;;;;;;28.83;10.45;;;4.50;99.90;;;;;;5011999;28;20068;-75
2022/03/27 05:26:09;;;;;;;23.08;9.27;;;4.50;99.90;;;;;;5030343;28;20077;-75
2022/03/27 05:28:35;;;;;;;25.52;9.80;;;4.50;99.90;;;;;;5028184;28;20080;-75
2022/03/27 05:31:03;;;;;;;26.65;9.98;;;4.50;99.90;;;;;;5028608;28;20064;-75
2022/03/27 05:33:29;;;;;;;24.83;10.52;;;4.50;99.90;;;;;;5027665;28;20057;-75
2022/03/27 05:35:55;;;;;;;27.48;10.43;;;4.50;99.90;;;;;;5032019;28;20491;-75
2022/03/27 05:38:21;;;;;;;25.92;9.57;;;4.60;99.90;;;;;;5027669;28;20626;-76
2022/03/27 05:40:47;;;;;;;21.70;9.40;;;4.60;99.90;;;;;;5031520;28;20045;-76
2022/03/27 05:43:13;;;;;;;22.73;9.40;;;4.60;99.90;;;;;;5032300;28;20079;-75
2022/03/27 05:45:39;;;;;;;29.35;9.90;;;4.70;99.90;;;;;;5033721;28;20125;-75
2022/03/27 05:48:06;;;;;;;31.75;10.60;;;4.60;99.90;;;;;;5030596;28;20180;-76
2022/03/27 05:50:32;;;;;;;30.17;9.85;;;4.70;99.90;;;;;;5032282;28;20033;-75
2022/03/27 05:52:57;;;;;;;24.13;9.43;;;4.70;99.90;;;;;;5033828;28;20502;-75
2022/03/27 05:55:25;;;;;;;28.00;9.50;;;4.80;99.90;;;;;;5034613;28;20040;-76
2022/03/27 05:57:51;;;;;;;25.90;9.82;;;4.80;99.90;;;;;;5032261;28;20045;-75
2022/03/27 06:00:21;;;;;;;29.08;9.95;;;4.80;99.90;;;;;;5031717;28;20049;-75
2022/03/27 06:02:48;;;;;;;28.40;9.93;;;4.90;99.90;;;;;;5030682;28;20454;-75
2022/03/27 06:05:17;;;;;;;27.70;9.73;;;4.90;99.90;;;;;;5031810;28;20044;-76
2022/03/27 06:07:47;;;;;;;31.15;11.02;;;5.00;99.90;;;;;;5031663;28;20091;-75
2022/03/27 06:10:15;;;;;;;32.38;11.88;;;5.00;99.90;;;;;;5031773;28;20041;-75
2022/03/27 06:12:43;;;;;;;38.88;13.18;;;5.10;99.90;;;;;;5030627;28;20037;-76
2022/03/27 06:15:10;;;;;;;33.08;11.77;;;5.10;99.90;;;;;;5032256;28;20087;-75
2022/03/27 06:17:46;;;;;;;42.95;14.25;;;5.20;99.90;;;;;;5032718;28;20033;-75
2022/03/27 06:20:15;;;;;;;59.45;15.38;;;5.20;99.90;;;;;;5030393;28;20126;-75
2022/03/27 06:22:41;;;;;;;33.13;15.55;;;5.30;99.90;;;;;;5029807;28;20033;-75
2022/03/27 06:25:09;;;;;;;50.15;15.85;;;5.40;99.90;;;;;;5033367;28;20030;-76
2022/03/27 06:27:36;;;;;;;39.90;14.80;;;5.50;99.90;;;;;;5033570;28;20038;-75
2022/03/27 06:30:06;;;;;;;40.92;14.55;;;5.50;99.90;;;;;;5031557;28;20052;-75
2022/03/27 06:32:33;;;;;;;49.40;13.95;;;5.50;99.90;;;;;;5032608;28;20445;-75
2022/03/27 06:34:59;;;;;;;53.67;14.25;;;5.50;99.90;;;;;;5031120;28;20053;-75
2022/03/27 06:37:26;;;;;;;47.22;13.52;;;5.60;99.90;;;;;;5034233;28;20522;-75
2022/03/27 06:39:54;;;;;;;39.45;12.07;;;5.60;99.90;;;;;;5026809;28;20053;-76
2022/03/27 06:42:21;;;;;;;41.60;11.40;;;5.60;99.90;;;;;;5024047;28;20144;-75
2022/03/27 06:44:47;;;;;;;39.92;11.30;;;5.70;99.90;;;;;;5033268;28;20410;-75
2022/03/27 06:47:13;;;;;;;41.33;13.20;;;5.80;99.90;;;;;;5030253;28;20039;-75
2022/03/27 06:49:39;;;;;;;41.22;11.02;;;5.80;99.90;;;;;;5010345;28;20411;-75
2022/03/27 06:52:06;;;;;;;50.83;11.45;;;5.90;99.90;;;;;;5029729;28;20045;-75
2022/03/27 06:54:34;;;;;;;39.00;10.73;;;6.00;99.90;;;;;;5029484;28;20033;-75
2022/03/27 06:56:59;;;;;;;33.90;9.73;;;6.10;99.90;;;;;;5034258;28;20029;-75
2022/03/27 06:59:25;;;;;;;41.33;10.27;;;6.20;99.90;;;;;;5030746;28;20491;-75
2022/03/27 07:04:35;;;;;;;37.95;8.75;;;6.30;99.90;;;;;;5029023;28;20055;-76
2022/03/27 07:07:01;;;;;;;41.15;8.65;;;6.30;99.90;;;;;;5031656;28;20041;-75
2022/03/27 07:09:26;;;;;;;47.10;9.82;;;6.40;99.90;;;;;;5033191;28;20534;-75
2022/03/27 07:11:52;;;;;;;34.53;8.85;;;6.40;99.90;;;;;;5012547;28;20156;-75
2022/03/27 07:14:18;;;;;;;32.92;9.10;;;6.40;99.90;;;;;;5032240;28;20036;-76
2022/03/27 07:16:44;;;;;;;36.53;9.27;;;6.40;99.90;;;;;;5032182;28;20034;-76
2022/03/27 07:19:10;;;;;;;39.60;9.15;;;6.50;99.90;;;;;;5029549;28;20698;-75
2022/03/27 07:21:39;;;;;;;32.53;8.85;;;6.50;99.90;;;;;;5030546;28;20077;-76
2022/03/27 07:24:05;;;;;;;43.42;10.05;;;6.50;99.90;;;;;;5027576;28;20041;-76
2022/03/27 07:26:31;;;;;;;40.97;9.77;;;6.50;99.90;;;;;;5031488;28;20042;-76
2022/03/27 07:28:57;;;;;;;40.72;10.60;;;6.60;99.90;;;;;;5030836;28;20040;-76
2022/03/27 07:31:23;;;;;;;42.60;9.70;;;6.60;99.90;;;;;;5030336;28;20120;-76
2022/03/27 07:33:50;;;;;;;30.70;9.07;;;6.60;99.90;;;;;;5028578;28;20433;-76
2022/03/27 07:36:16;;;;;;;33.97;9.57;;;6.60;99.90;;;;;;5045267;28;20044;-76
2022/03/27 07:38:42;;;;;;;38.20;10.18;;;6.70;99.90;;;;;;5036208;28;20053;-76
2022/03/27 07:41:08;;;;;;;37.47;9.23;;;6.80;99.90;;;;;;5036879;28;20112;-75
2022/03/27 07:43:34;;;;;;;34.03;10.65;;;6.80;99.90;;;;;;5020803;28;20057;-75
2022/03/27 07:46:00;;;;;;;30.55;8.77;;;6.90;99.90;;;;;;5032291;28;20100;-76
2022/03/27 07:48:26;;;;;;;30.05;8.50;;;6.80;99.90;;;;;;5038827;28;20060;-77
2022/03/27 07:50:54;;;;;;;39.80;10.38;;;6.90;99.90;;;;;;5039376;28;20037;-75
2022/03/27 07:53:21;;;;;;;41.15;9.07;;;7.00;99.90;;;;;;5032145;28;20034;-76
2022/03/27 07:55:46;;;;;;;49.30;10.18;;;7.00;99.90;;;;;;5027386;28;20033;-76
2022/03/27 07:58:12;;;;;;;39.47;9.10;;;7.00;99.90;;;;;;5032028;28;20052;-76
2022/03/27 08:00:38;;;;;;;41.30;10.07;;;7.10;99.90;;;;;;5029597;28;20034;-76
2022/03/27 08:03:04;;;;;;;46.80;9.85;;;7.10;99.90;;;;;;5036210;28;20391;-77
2022/03/27 08:05:29;;;;;;;40.78;9.88;;;7.10;99.90;;;;;;5029208;28;20483;-76
2022/03/27 08:07:56;;;;;;;40.95;9.00;;;7.30;99.90;;;;;;5031504;28;20037;-76
2022/03/27 08:10:22;;;;;;;36.58;8.82;;;7.30;99.90;;;;;;5028863;28;20450;-76
2022/03/27 08:12:47;;;;;;;36.30;8.88;;;7.40;99.90;;;;;;5028983;28;20041;-76
2022/03/27 08:15:14;;;;;;;32.92;8.07;;;7.50;99.90;;;;;;5014861;28;20037;-75
2022/03/27 08:17:40;;;;;;;38.35;9.20;;;7.50;99.90;;;;;;5030714;28;20041;-76
2022/03/27 08:20:07;;;;;;;32.50;8.15;;;7.50;99.90;;;;;;5033116;28;20036;-76
2022/03/27 08:22:33;;;;;;;45.08;8.52;;;7.60;99.90;;;;;;5030042;28;20072;-76
2022/03/27 08:24:59;;;;;;;37.17;9.75;;;7.70;99.90;;;;;;5028867;28;20095;-76
2022/03/27 08:27:26;;;;;;;33.67;8.38;;;7.70;99.90;;;;;;5029682;28;20037;-76
2022/03/27 08:29:52;;;;;;;37.05;8.23;;;7.70;99.90;;;;;;5030203;28;20124;-76
2022/03/27 08:32:18;;;;;;;39.15;8.82;;;7.80;99.90;;;;;;5033362;28;20441;-76
2022/03/27 08:34:48;;;;;;;26.70;8.30;;;7.80;99.90;;;;;;5035254;28;20048;-76
2022/03/27 08:37:16;;;;;;;34.47;8.38;;;8.80;99.90;;;;;;5035291;28;20076;-76
2022/03/27 08:39:44;;;;;;;32.05;8.70;;;10.00;99.90;;;;;;5025917;28;20049;-76
2022/03/27 08:42:11;;;;;;;31.23;7.32;;;11.20;99.90;;;;;;5029166;28;20065;-76
2022/03/27 08:44:37;;;;;;;33.80;7.85;;;11.60;99.90;;;;;;5029550;28;20042;-76
2022/03/27 08:47:19;;;;;;;27.67;7.85;;;11.40;99.90;;;;;;5041540;28;20040;-76
2022/03/27 08:50:00;;;;;;;32.53;8.90;;;11.10;99.90;;;;;;5038261;28;20033;-76
2022/03/27 08:52:41;;;;;;;34.17;7.85;;;11.60;99.90;;;;;;5037686;28;20037;-76
2022/03/27 08:55:14;;;;;;;35.05;9.13;;;12.70;99.90;;;;;;5046749;28;20112;-76
2022/03/27 08:58:00;;;;;;;31.17;7.28;;;13.30;99.90;;;;;;5032101;28;20041;-76
2022/03/27 09:00:29;;;;;;;34.83;8.32;;;14.00;99.90;;;;;;5028745;28;20113;-76
2022/03/27 09:02:56;;;;;;;29.58;7.95;;;14.60;99.90;;;;;;5017555;28;20029;-76
2022/03/27 09:05:23;;;;;;;31.80;8.48;;;15.00;99.90;;;;;;5039690;28;20503;-76
2022/03/27 09:07:50;;;;;;;34.58;8.77;;;14.50;99.50;;;;;;5031266;28;20502;-76
2022/03/27 09:10:17;;;;;;;26.67;7.72;;;14.20;99.60;;;;;;5030670;28;20109;-76
2022/03/27 09:12:44;;;;;;;27.65;8.88;;;13.40;99.10;;;;;;5029288;28;20033;-76
2022/03/27 09:15:11;;;;;;;31.02;8.55;;;13.30;99.90;;;;;;5031050;28;20041;-76
2022/03/27 09:17:59;;;;;;;37.50;10.73;;;13.60;99.90;;;;;;5033182;28;20038;-76
2022/03/27 09:20:34;;;;;;;26.58;8.80;;;13.80;97.40;;;;;;5030777;28;20368;-77
2022/03/27 09:23:24;;;;;;;38.85;8.68;;;13.40;97.70;;;;;;5037384;28;20075;-76
2022/03/27 09:25:58;;;;;;;27.98;8.70;;;14.10;96.60;;;;;;5041823;28;20108;-76
2022/03/27 09:28:45;;;;;;;28.25;9.88;;;14.70;97.70;;;;;;5033345;28;20034;-77
2022/03/27 09:31:14;;;;;;;36.92;9.52;;;15.20;96.10;;;;;;5032257;28;20041;-77
2022/03/27 09:33:49;;;;;;;31.90;9.23;;;15.60;96.40;;;;;;5042064;28;20029;-77
2022/03/27 09:36:19;;;;;;;42.72;10.02;;;16.00;95.70;;;;;;5017217;28;20049;-77
2022/03/27 09:39:13;;;;;;;37.28;8.60;;;15.90;94.20;;;;;;5040814;28;20049;-77
2022/03/27 09:41:51;;;;;;;32.20;9.50;;;16.30;93.80;;;;;;5020531;28;20152;-77
2022/03/27 09:44:22;;;;;;;32.05;9.02;;;16.40;93.80;;;;;;5040941;28;20051;-77
2022/03/27 09:47:05;;;;;;;37.40;8.55;;;16.00;92.70;;;;;;5033006;28;20406;-78
2022/03/27 09:49:31;;;;;;;31.75;8.38;;;16.60;91.40;;;;;;5033772;28;20209;-77
2022/03/27 09:52:08;;;;;;;27.23;8.55;;;17.20;92.50;;;;;;5042304;28;20033;-77
2022/03/27 09:55:01;;;;;;;30.15;8.80;;;17.50;90.30;;;;;;5040783;28;20073;-77
2022/03/27 09:57:31;;;;;;;33.08;8.63;;;17.80;90.20;;;;;;5041207;28;20037;-78
2022/03/27 10:00:19;;;;;;;28.67;8.27;;;17.50;89.90;;;;;;5032633;28;20491;-78
2022/03/27 10:02:46;;;;;;;25.65;7.63;;;17.30;86.40;;;;;;5034245;28;20442;-79
2022/03/27 10:05:14;;;;;;;27.60;7.93;;;17.00;89.30;;;;;;5036757;28;20099;-82
2022/03/27 10:07:48;;;;;;;23.17;8.35;;;16.90;90.30;;;;;;5036557;28;20071;-81
2022/03/27 10:10:20;;;;;;;26.88;8.38;;;17.00;88.00;;;;;;5032678;28;20112;-81
2022/03/27 10:12:47;;;;;;;27.87;8.10;;;17.00;89.20;;;;;;5030824;28;20099;-82
2022/03/27 10:15:30;;;;;;;28.67;9.07;;;17.20;88.60;;;;;;5045230;28;20033;-81
2022/03/27 10:18:09;;;;;;;;;;;17.70;87.80;;;;;;5040430;28;20082;-79
2022/03/27 10:20:37;;;;;;;25.00;7.57;;;17.60;84.40;;;;;;5029822;28;19925;-81
2022/03/27 10:23:07;;;;;;;27.90;7.88;;;17.80;85.90;;;;;;5031412;28;20071;-80
2022/03/27 10:25:45;;;;;;;34.35;8.57;;;17.90;82.30;;;;;;5033784;28;20459;-83
2022/03/27 10:28:12;;;;;;;27.75;8.27;;;18.30;81.30;;;;;;5031237;28;20041;-83
2022/03/27 10:30:38;;;;;;;25.67;6.95;;;18.70;81.20;;;;;;5031128;28;20121;-83
2022/03/27 10:33:07;;;;;;;22.85;6.85;;;18.50;79.10;;;;;;5031505;28;20049;-82
2022/03/27 10:36:12;;;;;;;22.35;7.25;;;18.40;77.90;;;;;;5029911;28;20045;-79
2022/03/27 10:39:04;;;;;;;25.15;7.45;;;18.00;76.90;;;;;;5025658;28;20057;-78
2022/03/27 10:42:03;;;;;;;21.20;7.75;;;18.10;76.30;;;;;;5063297;28;20106;-82
2022/03/27 10:44:43;;;;;;;19.58;7.35;;;17.90;77.40;;;;;;5029964;28;20045;-83
2022/03/27 10:47:17;;;;;;;21.65;6.70;;;18.10;75.40;;;;;;5029505;28;20528;-84
2022/03/27 10:50:02;;;;;;;25.77;7.93;;;18.40;75.70;;;;;;5031314;28;20124;-83
2022/03/27 10:52:31;;;;;;;22.27;6.85;;;18.60;74.60;;;;;;5033365;28;20076;-83
2022/03/27 10:55:11;;;;;;;26.20;7.45;;;19.00;73.90;;;;;;5032288;28;20106;-84
2022/03/27 10:57:39;;;;;;;28.38;8.27;;;19.00;72.60;;;;;;5030996;28;20029;-83
2022/03/27 11:00:08;;;;;;;27.75;7.82;;;18.70;73.60;;;;;;5030668;28;20056;-83
2022/03/27 11:02:49;;;;;;;24.67;8.32;;;18.60;74.40;;;;;;5030697;28;20782;-82
2022/03/27 11:05:40;;;;;;;27.60;6.90;;;19.00;73.70;;;;;;5028898;28;20045;-82
2022/03/27 11:08:15;;;;;;;26.65;7.47;;;19.30;72.40;;;;;;5035775;28;20228;-77
2022/03/27 11:10:49;;;;;;;28.08;7.25;;;19.10;71.80;;;;;;5029099;28;20399;-77
2022/03/27 11:13:39;;;;;;;29.20;8.23;;;19.20;73.40;;;;;;5028198;28;20099;-78
2022/03/27 11:16:07;;;;;;;25.20;7.00;;;19.20;69.70;;;;;;5033605;28;20069;-78
2022/03/27 11:18:45;;;;;;;26.67;7.43;;;18.80;71.00;;;;;;5030358;28;20510;-78
2022/03/27 11:21:34;;;;;;;23.25;7.30;;;18.80;70.10;;;;;;5029640;28;21445;-77
2022/03/27 11:24:03;;;;;;;22.40;6.93;;;18.80;71.80;;;;;;5030304;28;20041;-79
2022/03/27 11:26:31;;;;;;;23.02;6.18;;;18.60;72.00;;;;;;5029640;28;20602;-81
2022/03/27 11:29:18;;;;;;;22.77;6.53;;;18.60;73.40;;;;;;5031096;28;20512;-81
2022/03/27 11:31:44;;;;;;;19.85;6.97;;;18.30;72.60;;;;;;5027996;28;20538;-82
2022/03/27 11:34:14;;;;;;;23.13;6.72;;;18.10;73.80;;;;;;5031563;28;20140;-84
2022/03/27 11:36:46;;;;;;;26.50;7.88;;;17.70;73.10;;;;;;5031185;28;20072;-78
2022/03/27 11:39:35;;;;;;;20.13;7.03;;;17.50;73.90;;;;;;5032067;28;20495;-80
2022/03/27 11:42:20;;;;;;;21.98;8.02;;;17.40;73.80;;;;;;5029076;28;20077;-83
2022/03/27 11:47:42;;;;;;;25.42;7.63;;;17.10;75.80;;;;;;5062871;28;20041;-86
2022/03/27 11:50:18;;;;;;;29.20;7.72;;;17.10;74.40;;;;;;5030403;28;20049;-83
2022/03/27 11:52:47;;;;;;;19.67;6.85;;;17.00;75.30;;;;;;5029594;28;20041;-86
2022/03/27 11:55:13;;;;;;;21.35;5.57;;;17.00;76.40;;;;;;5028326;28;20099;-85
2022/03/27 11:57:45;;;;;;;23.05;6.82;;;17.00;75.50;;;;;;5032195;28;20041;-85
2022/03/27 12:00:15;;;;;;;20.48;5.82;;;17.00;74.70;;;;;;5029698;28;20040;-85
2022/03/27 12:02:43;;;;;;;30.67;6.15;;;17.00;74.30;;;;;;5031512;28;20056;-81
2022/03/27 12:05:13;;;;;;;20.45;6.22;;;17.10;74.60;;;;;;5032528;28;20044;-80
2022/03/27 12:07:52;;;;;;;22.17;5.90;;;17.30;74.60;;;;;;5029412;28;20052;-86
2022/03/27 12:10:18;;;;;;;17.98;5.80;;;17.10;73.60;;;;;;5028596;28;20671;-81
2022/03/27 12:13:07;;;;;;;23.45;6.20;;;17.00;73.80;;;;;;5045111;28;20088;-85
2022/03/27 12:15:42;;;;;;;16.05;5.00;;;17.10;73.50;;;;;;5029116;28;20040;-86
2022/03/27 12:18:08;;;;;;;23.10;5.32;;;17.20;73.20;;;;;;5029504;28;20037;-85
2022/03/27 12:21:12;;;;;;;18.77;5.63;;;17.40;73.60;;;;;;5028944;28;20045;-85
2022/03/27 12:23:51;;;;;;;21.58;5.28;;;17.60;72.50;;;;;;5024644;28;20080;-86
2022/03/27 12:32:13;;;;;;;22.15;5.82;;;17.80;73.20;;;;;;5028106;28;20629;-83
2022/03/27 12:34:54;;;;;;;20.92;6.40;;;18.00;73.20;;;;;;5028624;28;20051;-84
2022/03/27 12:37:24;;;;;;;20.48;6.28;;;18.10;72.60;;;;;;5024652;28;20060;-83
2022/03/27 12:39:50;;;;;;;22.50;5.93;;;17.90;73.00;;;;;;5027712;28;20041;-83
2022/03/27 12:42:39;;;;;;;19.05;5.53;;;17.80;72.60;;;;;;5026369;28;20513;-83
2022/03/27 12:45:17;;;;;;;19.52;6.00;;;18.10;71.10;;;;;;5024441;28;20411;-82
2022/03/27 12:47:46;;;;;;;17.77;5.25;;;18.00;70.90;;;;;;5024010;28;20049;-82
2022/03/27 12:50:29;;;;;;;16.98;5.15;;;18.60;70.90;;;;;;5026202;28;20067;-83
2022/03/27 12:52:57;;;;;;;18.77;5.50;;;18.60;70.90;;;;;;5026408;28;20049;-82
2022/03/27 12:55:39;;;;;;;18.50;5.88;;;18.40;69.90;;;;;;5027505;28;20045;-83
2022/03/27 12:58:05;;;;;;;;;;;18.50;69.80;;;;;;5022728;28;20053;-84
2022/03/27 13:00:33;;;;;;;18.02;5.32;;;18.40;69.60;;;;;;5016028;28;19944;-85
2022/03/27 13:03:15;;;;;;;24.38;5.80;;;18.30;70.40;;;;;;5026009;28;20045;-84
2022/03/27 13:05:43;;;;;;;15.75;5.43;;;18.40;71.70;;;;;;5027871;28;20079;-84